Time;durP1;ratioP1;P1;durP2;ratioP2;P2;SDS_P1;SDS_P2;PMS_P1;PMS_P2;Temp;Humidity;BMP_temperature;BMP_pressure;BME280_temperature;BME280_humidity;BME280_pressure;Samples;Min_cycle;Max_cycle;Signal;HPM_P1;HPM_P2
2023/08/02 00:02:11;;;;;;;;;;;19.70;79.30;;;19.14;72.16;95436.59;4906846;29;19926;-87
2023/08/02 00:04:41;;;;;;;;;;;19.70;79.40;;;19.12;72.08;95436.13;4892178;29;19927;-88
2023/08/02 00:07:09;;;;;;;;;;;19.70;79.30;;;19.10;72.11;95432.09;4907382;29;19934;-88
2023/08/02 00:09:37;;;;;;;;;;;19.70;79.60;;;19.07;72.42;95427.22;4921768;29;19927;-88
2023/08/02 00:12:07;;;;;;;;;;;19.70;79.60;;;19.08;72.45;95431.63;4891634;29;19934;-88
2023/08/02 00:14:39;;;;;;;;;;;19.70;79.60;;;19.06;72.26;95431.16;4892149;29;19934;-88
2023/08/02 00:17:07;;;;;;;;;;;19.70;79.60;;;19.05;72.38;95421.22;4907224;29;19934;-88
2023/08/02 00:19:36;;;;;;;;;;;19.60;79.60;;;19.05;72.22;95418.44;4891606;29;19927;-88
2023/08/02 00:22:06;;;;;;;;;;;19.70;79.70;;;19.02;72.22;95414.41;4906620;29;19938;-88
2023/08/02 00:24:35;;;;;;;;;;;19.60;79.60;;;19.03;72.42;95404.94;4891697;29;19930;-88
2023/08/02 00:27:03;;;;;;;;;;;19.60;79.60;;;19.04;72.59;95409.31;4891855;29;19934;-88
2023/08/02 00:29:31;;;;;;;;;;;19.70;79.70;;;19.08;72.22;95417.75;4891464;29;19927;-88
2023/08/02 00:32:01;;;;;;;;;;;19.70;79.70;;;19.08;72.18;95409.44;4891174;29;20291;-88
2023/08/02 00:34:29;;;;;;;;;;;19.60;79.40;;;19.09;72.34;95416.59;4884196;29;19934;-88
2023/08/02 00:36:57;;;;;;;;;;;19.70;79.60;;;19.07;72.19;95416.13;4888338;29;19971;-88
2023/08/02 00:39:26;;;;;;;;;;;19.70;79.60;;;19.05;72.04;95415.66;4879948;29;20309;-88
2023/08/02 00:41:54;;;;;;;;;;;19.70;79.60;;;19.03;72.34;95409.69;4906709;29;19927;-88
2023/08/02 00:44:34;;;;;;;;;;;19.60;79.40;;;19.01;72.08;95407.22;4892980;29;19950;-87
2023/08/02 00:47:04;;;;;;;;;;;19.60;79.60;;;18.99;72.40;95413.13;4909558;29;19926;-88
2023/08/02 00:49:36;;;;;;;;;;;19.60;79.40;;;18.97;72.02;95412.66;4894500;29;19927;-88
2023/08/02 00:52:05;;;;;;;;;;;19.60;79.40;;;19.00;72.15;95416.72;4894324;29;19938;-88
2023/08/02 00:54:33;;;;;;;;;;;19.60;79.40;;;18.99;71.93;95413.13;4908256;29;19934;-87
2023/08/02 00:57:02;;;;;;;;;;;19.60;79.40;;;18.98;72.09;95414.28;4910279;29;19942;-88
2023/08/02 00:59:30;;;;;;;;;;;19.60;79.50;;;18.97;72.26;95421.00;4909365;29;19927;-87
2023/08/02 01:01:58;;;;;;;;;;;19.50;79.40;;;18.95;72.11;95420.50;4893952;29;19927;-87
2023/08/02 01:04:28;;;;;;;;;;;19.60;79.40;;;18.93;72.37;95425.56;4894267;29;19927;-88
2023/08/02 01:07:00;;;;;;;;;;;19.50;79.60;;;18.95;72.29;95422.50;4894432;29;19926;-88
2023/08/02 01:09:30;;;;;;;;;;;19.50;79.70;;;18.94;72.40;95430.00;4894394;29;19927;-87
2023/08/02 01:12:00;;;;;;;;;;;19.50;79.70;;;18.92;72.13;95420.38;4893855;29;20398;-87
2023/08/02 01:14:29;;;;;;;;;;;19.50;79.50;;;18.92;72.24;95423.16;4910036;29;19927;-88
2023/08/02 01:16:57;;;;;;;;;;;19.50;79.50;;;18.91;72.49;95419.53;4894526;29;19927;-87
2023/08/02 01:19:27;;;;;;;;;;;19.50;79.70;;;18.91;72.23;95419.53;4909753;29;20415;-87
2023/08/02 01:21:58;;;;;;;;;;;19.50;80.50;;;18.95;72.18;95430.81;4893788;29;19931;-88
2023/08/02 01:24:32;;;;;;;;;;;19.50;79.40;;;18.94;71.85;95423.66;4909472;29;19934;-87
2023/08/02 01:27:05;;;;;;;;;;;19.50;79.30;;;18.89;71.77;95413.56;4909961;29;20398;-87
2023/08/02 01:29:34;;;;;;;;;;;19.50;79.10;;;18.85;71.94;95415.38;4894036;29;19926;-87
2023/08/02 01:32:02;;;;;;;;;;;19.50;79.10;;;18.82;71.55;95408.56;4893500;29;19934;-88
2023/08/02 01:34:32;;;;;;;;;;;19.50;78.90;;;18.82;71.69;95408.56;4926375;29;19927;-87
2023/08/02 01:37:02;;;;;;;;;;;19.40;79.00;;;18.83;72.15;95406.59;4928899;29;20419;-88
2023/08/02 01:39:30;;;;;;;;;;;19.40;79.10;;;18.84;71.99;95417.38;4928499;29;20412;-88
2023/08/02 01:41:58;;;;;;;;;;;19.50;79.20;;;18.83;71.73;95414.91;4912660;29;19927;-88
2023/08/02 01:44:27;;;;;;;;;;;19.50;79.20;;;18.84;72.19;95419.31;4927988;29;19934;-88
2023/08/02 01:46:55;;;;;;;;;;;19.40;79.20;;;18.81;72.07;95415.28;4897116;29;19930;-87
2023/08/02 01:49:24;;;;;;;;;;;19.40;79.20;;;18.78;71.85;95418.72;4912937;29;19934;-88
2023/08/02 01:51:52;;;;;;;;;;;19.40;79.30;;;18.79;71.89;95420.34;4912345;29;19926;-88
2023/08/02 01:54:24;;;;;;;;;;;19.40;79.30;;;18.77;71.84;95422.66;4912563;29;19933;-87
2023/08/02 01:56:52;;;;;;;;;;;19.40;79.20;;;18.75;71.96;95426.94;4912590;29;19933;-88
2023/08/02 01:59:20;;;;;;;;;;;19.30;79.40;;;18.75;72.42;95421.38;4911748;29;20414;-88
2023/08/02 02:01:48;;;;;;;;;;;19.30;79.50;;;18.74;72.14;95416.97;4911971;29;20328;-88
2023/08/02 02:04:17;;;;;;;;;;;19.30;79.50;;;18.73;72.27;95423.69;4897326;29;20302;-87
2023/08/02 02:06:45;;;;;;;;;;;19.30;79.40;;;18.71;72.12;95418.50;4912211;29;19931;-88
2023/08/02 02:09:13;;;;;;;;;;;19.30;79.40;;;18.70;72.00;95422.41;4912260;29;19927;-87
2023/08/02 02:11:43;;;;;;;;;;;19.30;79.10;;;18.67;71.89;95423.09;4927006;29;19927;-88
2023/08/02 02:14:11;;;;;;;;;;;19.30;79.10;;;18.64;71.75;95427.38;4912187;29;19934;-88
2023/08/02 02:16:39;;;;;;;;;;;19.30;79.20;;;18.64;72.17;95432.09;4912008;29;19927;-88
2023/08/02 02:19:08;;;;;;;;;;;19.30;79.30;;;18.65;72.09;95450.34;4911983;29;19926;-88
2023/08/02 02:21:36;;;;;;;;;;;19.30;79.50;;;18.66;72.26;95446.41;4927506;29;19927;-88
2023/08/02 02:24:05;;;;;;;;;;;19.30;79.60;;;18.67;72.05;95446.06;4943286;29;19933;-88
2023/08/02 02:26:33;;;;;;;;;;;19.30;79.60;;;18.66;72.24;95441.66;4911974;29;19927;-87
2023/08/02 02:29:13;;;;;;;;;;;19.30;79.60;;;18.65;71.97;95445.59;4897580;29;19933;-87
2023/08/02 02:31:41;;;;;;;;;;;19.20;79.50;;;18.65;71.94;95440.03;4911682;29;20374;-88
2023/08/02 02:34:08;;;;;;;;;;;19.30;79.50;;;18.64;72.11;95444.00;4911818;29;20397;-88
2023/08/02 02:36:38;;;;;;;;;;;19.30;79.50;;;18.63;72.06;95455.41;4912166;29;19927;-88
2023/08/02 02:39:06;;;;;;;;;;;19.30;79.50;;;18.65;72.47;95450.34;4927867;29;19926;-87
2023/08/02 02:41:36;;;;;;;;;;;19.20;79.60;;;18.66;72.31;95451.97;4927389;29;19938;-87
2023/08/02 02:44:06;;;;;;;;;;;19.30;79.70;;;18.66;72.07;95458.31;4927535;29;19927;-88
2023/08/02 02:46:41;;;;;;;;;;;19.30;79.60;;;18.67;72.15;95453.59;4913702;29;19927;-87
2023/08/02 02:49:09;;;;;;;;;;;19.30;79.40;;;18.67;72.04;95454.38;4911464;29;19934;-88
2023/08/02 02:51:37;;;;;;;;;;;19.30;79.40;;;18.67;72.06;95462.69;4907771;29;19927;-88
2023/08/02 02:54:05;;;;;;;;;;;19.30;79.50;;;18.71;72.29;95465.63;4877171;29;19937;-87
2023/08/02 02:56:34;;;;;;;;;;;19.30;79.40;;;18.71;72.08;95460.06;4908321;29;19930;-87
2023/08/02 02:59:02;;;;;;;;;;;19.30;79.30;;;18.73;72.05;95466.06;4908024;29;19942;-87
2023/08/02 03:01:30;;;;;;;;;;;19.30;79.40;;;18.74;72.18;95475.22;4923332;29;19934;-88
2023/08/02 03:04:00;;;;;;;;;;;19.30;79.30;;;18.73;71.99;95473.59;4892511;29;20309;-88
2023/08/02 03:06:28;;;;;;;;;;;19.30;79.30;;;18.69;72.10;95468.72;4905602;29;20276;-88
2023/08/02 03:08:56;;;;;;;;;;;19.30;79.20;;;18.70;72.35;95469.53;4876945;29;19934;-88
2023/08/02 03:11:25;;;;;;;;;;;19.30;79.20;;;18.69;72.06;95467.91;4892548;29;19998;-88
2023/08/02 03:13:53;;;;;;;;;;;19.30;79.40;;;18.68;71.95;95460.75;4892700;29;19927;-88
2023/08/02 03:16:21;;;;;;;;;;;19.30;79.30;;;18.68;72.16;95463.53;4892901;29;19927;-87
2023/08/02 03:18:54;;;;;;;;;;;19.30;79.50;;;18.68;72.00;95472.63;4924043;29;19934;-88
2023/08/02 03:21:24;;;;;;;;;;;19.30;79.40;;;18.68;72.19;95478.19;4892371;29;19927;-88
2023/08/02 03:23:53;;;;;;;;;;;19.30;79.30;;;18.65;71.96;95473.31;4908033;29;19957;-88
2023/08/02 03:26:23;;;;;;;;;;;19.30;79.20;;;18.64;71.89;95471.72;4923462;29;19934;-88
2023/08/02 03:28:51;;;;;;;;;;;19.20;80.00;;;18.63;72.12;95475.63;4907919;29;19934;-88
2023/08/02 03:31:22;;;;;;;;;;;19.20;79.30;;;18.65;72.06;95478.84;4907887;29;19950;-88
2023/08/02 03:33:50;;;;;;;;;;;19.20;79.40;;;18.63;72.15;95469.28;4907847;29;19927;-88
2023/08/02 03:36:25;;;;;;;;;;;19.20;79.20;;;18.61;72.17;95477.94;4908046;29;19927;-88
2023/08/02 03:38:53;;;;;;;;;;;19.20;79.40;;;18.62;71.94;95484.28;4905122;29;19934;-88
2023/08/02 03:41:21;;;;;;;;;;;19.30;79.50;;;18.60;72.05;95476.31;4919944;29;19927;-88
2023/08/02 03:43:49;;;;;;;;;;;19.20;79.40;;;18.59;71.96;95469.16;4908065;29;19927;-88
2023/08/02 03:46:18;;;;;;;;;;;19.20;79.40;;;18.63;72.29;95481.19;4907712;29;19938;-88
2023/08/02 03:48:48;;;;;;;;;;;19.20;79.60;;;18.66;72.42;95479.69;4907784;29;19946;-88
2023/08/02 03:51:16;;;;;;;;;;;19.30;79.60;;;18.66;72.35;95474.13;4907419;29;19930;-88
2023/08/02 03:53:46;;;;;;;;;;;19.30;79.70;;;18.68;72.35;95475.41;4926798;29;19933;-88
2023/08/02 03:56:14;;;;;;;;;;;19.30;79.60;;;18.71;72.26;95483.06;4926656;29;20586;-88
2023/08/02 03:58:43;;;;;;;;;;;19.30;79.60;;;18.76;72.50;95489.53;4907156;29;20283;-87
2023/08/02 04:01:11;;;;;;;;;;;19.40;79.70;;;18.82;72.56;95489.00;4907119;29;19934;-88
2023/08/02 04:03:42;;;;;;;;;;;19.40;79.90;;;18.85;72.04;95482.75;4891896;29;20317;-88
2023/08/02 04:11:57;;;;;;;;;;;19.50;79.50;;;18.92;71.93;95486.94;4893035;29;19950;-92
2023/08/02 04:14:25;;;;;;;;;;;19.50;79.20;;;18.91;71.98;95482.53;4848513;29;19934;-92
2023/08/02 04:16:56;;;;;;;;;;;19.50;79.20;;;18.89;71.88;95487.59;4888735;29;19927;-92
2023/08/02 04:19:26;;;;;;;;;;;19.50;79.30;;;18.85;71.78;95471.66;4864642;29;19927;-92
2023/08/02 04:21:55;;;;;;;;;;;19.50;79.20;;;18.85;72.16;95490.25;4895874;29;20310;-92
2023/08/02 04:24:23;;;;;;;;;;;19.50;79.60;;;18.88;72.56;95491.53;4870868;29;19934;-92
2023/08/02 04:26:51;;;;;;;;;;;19.50;79.70;;;18.88;72.47;95497.91;4850100;29;19957;-91
2023/08/02 04:29:23;;;;;;;;;;;19.50;79.70;;;18.90;72.39;95506.69;4888482;29;19935;-92
2023/08/02 04:31:52;;;;;;;;;;;19.50;79.80;;;18.91;72.21;95497.19;4876797;29;19927;-92
2023/08/02 04:34:21;;;;;;;;;;;19.50;79.80;;;18.92;72.34;95501.59;4874760;29;19950;-92
2023/08/02 04:36:53;;;;;;;;;;;19.50;79.70;;;18.95;72.46;95509.28;4879230;29;19934;-92
2023/08/02 04:39:21;;;;;;;;;;;19.50;79.80;;;18.99;72.60;95515.75;4881348;29;19951;-92
2023/08/02 04:41:54;;;;;;;;;;;19.60;79.90;;;18.98;72.81;95514.13;4865006;29;19927;-92
2023/08/02 04:44:25;;;;;;;;;;;19.60;79.90;;;19.03;72.73;95526.97;4875877;29;20409;-92
2023/08/02 04:46:54;;;;;;;;;;;19.60;79.90;;;19.10;72.56;95540.28;4869810;29;20318;-92
2023/08/02 04:49:24;;;;;;;;;;;19.70;79.90;;;19.10;72.33;95541.13;4882361;29;19934;-92
2023/08/02 04:51:55;;;;;;;;;;;19.70;79.60;;;19.20;72.29;95548.19;4851000;29;19927;-92
2023/08/02 04:54:25;;;;;;;;;;;19.80;79.40;;;19.26;71.78;95552.38;4869733;29;19935;-91
2023/08/02 04:56:54;;;;;;;;;;;19.90;79.30;;;19.32;71.58;95545.44;4881148;29;19927;-91
2023/08/02 04:59:25;;;;;;;;;;;19.90;78.90;;;19.37;71.84;95540.81;4895046;29;19943;-92
2023/08/02 05:01:53;;;;;;;;;;;20.00;78.80;;;19.37;71.88;95538.84;4890578;29;19934;-92
2023/08/02 05:04:22;;;;;;;;;;;20.00;78.80;;;19.38;71.50;95536.91;4862985;29;19934;-92
2023/08/02 05:06:50;;;;;;;;;;;20.00;78.80;;;19.37;72.09;95554.69;4898217;29;19953;-92
2023/08/02 05:09:20;;;;;;;;;;;19.90;79.10;;;19.36;72.15;95564.19;4886730;29;19927;-92
2023/08/02 05:11:53;;;;;;;;;;;20.00;79.20;;;19.37;72.08;95568.56;4896337;29;19928;-92
2023/08/02 05:14:22;;;;;;;;;;;20.00;79.20;;;19.39;72.00;95558.75;4906297;29;19934;-92
2023/08/02 05:16:54;;;;;;;;;;;20.00;79.20;;;19.40;71.77;95542.91;4879054;29;19931;-91
2023/08/02 05:19:26;;;;;;;;;;;20.00;79.00;;;19.45;71.81;95559.34;4893064;29;19943;-91
2023/08/02 05:21:54;;;;;;;;;;;20.10;79.00;;;19.49;72.19;95556.69;4868043;29;19927;-92
2023/08/02 05:24:23;;;;;;;;;;;20.10;79.60;;;19.51;72.53;95554.38;4865145;29;19934;-92
2023/08/02 05:26:53;;;;;;;;;;;20.10;79.70;;;19.51;71.92;95546.88;4897406;29;19927;-92
2023/08/02 05:29:24;;;;;;;;;;;20.20;79.30;;;19.52;71.98;95547.66;4860106;29;19927;-92
2023/08/02 05:31:58;;;;;;;;;;;20.10;79.40;;;19.53;72.67;95539.00;4883058;29;19938;-92
2023/08/02 05:34:27;;;;;;;;;;;20.10;80.80;;;19.54;72.94;95532.31;4881176;29;19927;-92
2023/08/02 05:36:55;;;;;;;;;;;20.20;80.00;;;19.56;73.16;95541.06;4864004;29;20387;-92
2023/08/02 05:39:24;;;;;;;;;;;20.10;80.40;;;19.57;73.10;95534.38;4880218;29;19934;-92
2023/08/02 05:41:58;;;;;;;;;;;20.10;80.30;;;19.60;72.79;95513.44;4881380;29;19927;-92
2023/08/02 05:44:26;;;;;;;;;;;20.20;80.00;;;19.62;72.76;95525.03;4909757;29;19927;-92
2023/08/02 05:46:57;;;;;;;;;;;20.20;80.20;;;19.66;73.32;95530.69;4881884;29;20314;-92
2023/08/02 05:49:27;;;;;;;;;;;20.20;80.40;;;19.68;72.68;95534.72;4870167;29;19934;-92
2023/08/02 05:51:55;;;;;;;;;;;20.30;80.00;;;19.69;72.59;95530.78;4881106;29;19927;-92
2023/08/02 05:54:24;;;;;;;;;;;20.30;79.80;;;19.72;72.79;95546.78;4890982;29;19950;-92
2023/08/02 05:56:54;;;;;;;;;;;20.40;80.00;;;19.79;72.98;95551.75;4882112;29;19928;-92
2023/08/02 05:59:22;;;;;;;;;;;20.40;80.30;;;19.84;72.66;95547.94;4875697;29;19943;-92
2023/08/02 06:01:52;;;;;;;;;;;20.40;79.90;;;19.87;72.58;95550.84;4866676;29;20407;-92
2023/08/02 06:04:26;;;;;;;;;;;20.50;79.80;;;19.97;72.58;95557.91;4903116;29;19935;-92
2023/08/02 06:06:57;;;;;;;;;;;20.50;80.80;;;20.08;72.29;95559.06;4898439;29;19938;-92
2023/08/02 06:09:26;;;;;;;;;;;20.60;79.60;;;20.19;71.99;95559.41;4890983;29;19927;-92
2023/08/02 06:11:57;;;;;;;;;;;20.70;79.20;;;20.31;71.60;95557.78;4897877;29;19935;-92
2023/08/02 06:14:27;;;;;;;;;;;20.80;78.80;;;20.37;71.37;95546.06;4860327;29;19934;-92
2023/08/02 06:16:56;;;;;;;;;;;21.00;78.70;;;20.48;70.96;95546.38;4860948;29;19935;-92
2023/08/02 06:19:30;;;;;;;;;;;21.00;78.90;;;20.59;71.53;95537.56;4893014;29;20410;-92
2023/08/02 06:22:01;;;;;;;;;;;21.10;79.00;;;20.69;70.83;95553.75;4883528;29;19927;-92
2023/08/02 06:24:31;;;;;;;;;;;21.20;78.00;;;20.76;70.29;95548.41;4897738;29;19927;-92
2023/08/02 06:27:05;;;;;;;;;;;21.30;77.50;;;20.82;70.26;95541.44;4888014;29;19934;-92
2023/08/02 06:29:35;;;;;;;;;;;21.40;77.60;;;20.88;71.51;95542.00;4882036;29;19927;-92
2023/08/02 06:32:10;;;;;;;;;;;21.40;78.80;;;20.92;71.38;95542.09;4874026;29;19934;-93
2023/08/02 06:34:47;;;;;;;;;;;21.50;78.60;;;20.97;70.54;95545.44;4911595;29;19931;-92
2023/08/02 06:37:22;;;;;;;;;;;21.50;77.70;;;21.04;70.09;95547.63;4879284;29;20398;-92
2023/08/02 06:39:52;;;;;;;;;;;21.60;77.30;;;21.10;70.41;95562.91;4902819;29;19931;-92
2023/08/02 06:42:22;;;;;;;;;;;21.70;77.70;;;21.13;69.98;95556.59;4887024;29;19930;-92
2023/08/02 06:44:52;;;;;;;;;;;21.70;76.80;;;21.14;69.66;95547.09;4894935;29;19927;-93
2023/08/02 06:47:27;;;;;;;;;;;21.70;76.40;;;21.17;69.28;95542.00;4884721;29;19936;-93
2023/08/02 06:50:02;;;;;;;;;;;21.80;76.20;;;21.19;69.27;95553.56;4884963;29;19934;-93
2023/08/02 06:52:35;;;;;;;;;;;21.80;76.10;;;21.20;69.31;95550.44;4904676;29;20108;-93
2023/08/02 06:55:07;;;;;;;;;;;21.80;75.80;;;21.20;68.58;95549.63;4912362;29;19928;-91
2023/08/02 06:57:42;;;;;;;;;;;21.80;75.20;;;21.21;68.63;95545.69;4924433;29;19911;-92
2023/08/02 07:00:23;;;;;;;;;;;21.80;75.20;;;21.21;68.06;95548.47;4931082;28;19934;-93
2023/08/02 07:03:03;;;;;;;;;;;21.80;74.50;;;21.18;68.09;95546.41;4891919;29;19927;-93
2023/08/02 07:05:50;;;;;;;;;;;21.80;74.60;;;21.17;67.57;95553.13;4883910;29;19934;-93
2023/08/02 07:08:34;;;;;;;;;;;21.80;74.30;;;21.17;67.98;95547.56;4911914;29;19927;-93
2023/08/02 07:11:08;;;;;;;;;;;21.80;74.50;;;21.14;68.00;95547.09;4924629;29;19927;-92
2023/08/02 07:13:49;;;;;;;;;;;21.80;74.50;;;21.13;67.97;95547.47;4920686;29;19918;-93
2023/08/02 07:16:21;;;;;;;;;;;21.80;74.40;;;21.09;67.90;95540.97;4911767;29;19934;-93
2023/08/02 07:18:52;;;;;;;;;;;21.70;74.30;;;21.06;67.80;95539.72;4866628;29;19931;-93
2023/08/02 07:21:26;;;;;;;;;;;21.70;74.30;;;21.05;67.97;95543.66;4900260;29;19950;-93
2023/08/02 07:23:56;;;;;;;;;;;21.70;74.40;;;21.09;67.92;95538.19;4877240;29;20403;-93
2023/08/02 07:26:27;;;;;;;;;;;21.70;74.40;;;21.11;67.80;95545.00;4878109;29;19935;-93
2023/08/02 07:28:57;;;;;;;;;;;21.70;74.40;;;21.11;67.75;95544.22;4882476;29;19928;-92
2023/08/02 07:31:28;;;;;;;;;;;21.70;74.00;;;21.09;67.71;95554.91;4873275;29;20306;-93
2023/08/02 07:34:01;;;;;;;;;;;21.70;74.10;;;21.12;67.59;95565.31;4897408;29;19931;-92
2023/08/02 07:36:45;;;;;;;;;;;21.70;74.10;;;21.15;67.49;95557.06;4915676;29;19927;-93
2023/08/02 07:39:17;;;;;;;;;;;21.80;74.10;;;21.20;67.35;95549.63;4899943;29;19953;-93
2023/08/02 07:41:56;;;;;;;;;;;21.80;74.00;;;21.24;67.45;95558.88;4899879;29;19932;-93
2023/08/02 07:44:37;;;;;;;;;;;21.80;73.80;;;21.25;67.30;95557.72;4892971;29;19926;-92
2023/08/02 07:47:12;;;;;;;;;;;21.90;73.80;;;21.26;67.10;95559.31;4890583;29;19928;-93
2023/08/02 07:50:09;;;;;;;;;;;21.90;73.80;;;21.23;67.45;95566.44;4896149;29;19934;-93
2023/08/02 07:52:51;;;;;;;;;;;21.90;73.60;;;21.23;67.28;95582.34;4898427;29;20425;-93
2023/08/02 07:55:24;;;;;;;;;;;21.90;73.70;;;21.21;67.32;95595.78;4886589;29;19927;-93
2023/08/02 11:44:59;;;;;;;;;;;21.90;76.20;;;21.21;69.32;95662.59;5690307;23;19934;-92
2023/08/02 11:47:36;;;;;;;;;;;21.90;76.20;;;21.23;69.78;95665.84;4889573;29;19935;-92
2023/08/02 11:50:08;;;;;;;;;;;21.90;76.20;;;21.24;69.62;95661.88;4895180;29;19927;-92
2023/08/02 11:52:37;;;;;;;;;;;21.90;76.10;;;21.25;69.21;95666.28;4873376;29;19934;-92
2023/08/02 11:55:07;;;;;;;;;;;21.90;76.20;;;21.26;69.64;95662.31;4901250;29;19927;-92
2023/08/02 11:57:38;;;;;;;;;;;21.90;76.20;;;21.27;69.59;95655.59;4919323;29;20004;-92
2023/08/02 12:00:13;;;;;;;;;;;21.90;76.20;;;21.28;69.39;95651.66;4904463;29;19927;-93
2023/08/02 12:02:46;;;;;;;;;;;21.90;76.10;;;21.31;69.26;95668.44;4914567;29;19927;-93
2023/08/02 12:05:46;;;;;;;;;;;21.90;75.90;;;21.30;69.43;95655.69;4893496;29;19928;-93
2023/08/02 12:08:17;;;;;;;;;;;21.90;76.00;;;21.33;69.16;95648.63;4895962;29;19934;-93
2023/08/02 12:10:51;;;;;;;;;;;22.00;75.80;;;21.34;69.30;95646.63;4876673;29;20349;-93
2023/08/02 12:13:27;;;;;;;;;;;22.00;75.90;;;21.35;69.55;95654.66;4905052;29;19927;-93
2023/08/02 12:16:03;;;;;;;;;;;22.00;76.00;;;21.37;69.20;95643.94;4897899;29;19927;-93
2023/08/02 12:18:35;;;;;;;;;;;22.00;75.90;;;21.38;69.03;95651.16;4893246;29;19927;-93
2023/08/02 12:21:18;;;;;;;;;;;22.00;75.80;;;21.42;69.17;95642.91;4908737;29;19931;-93
2023/08/02 12:23:51;;;;;;;;;;;22.00;75.70;;;21.43;69.21;95636.97;4927396;29;19927;-93
2023/08/02 12:26:31;;;;;;;;;;;22.00;75.40;;;21.44;68.95;95652.53;4890781;29;20386;-93
2023/08/02 12:29:01;;;;;;;;;;;22.10;75.40;;;21.43;68.62;95648.13;4920540;29;19927;-93
2023/08/02 12:31:44;;;;;;;;;;;22.10;75.50;;;21.43;68.91;95653.69;4905560;29;20386;-93
2023/08/02 12:34:13;;;;;;;;;;;22.10;75.40;;;21.42;68.84;95649.28;4889265;29;20437;-93
2023/08/02 12:36:47;;;;;;;;;;;22.10;75.40;;;21.42;68.72;95652.06;4902339;29;19927;-92
2023/08/02 12:39:16;;;;;;;;;;;22.00;75.40;;;21.39;68.83;95641.63;4927784;29;20407;-92
2023/08/02 12:41:47;;;;;;;;;;;22.10;75.40;;;21.41;68.79;95656.00;4919708;29;19918;-93
2023/08/02 12:44:16;;;;;;;;;;;22.00;75.40;;;21.41;68.83;95652.44;4928601;29;19927;-93
2023/08/02 12:46:50;;;;;;;;;;;22.00;75.50;;;21.42;68.99;95648.47;4913052;29;19915;-93
2023/08/02 12:49:21;;;;;;;;;;;22.10;75.60;;;21.43;68.99;95648.13;4915566;29;19927;-93
2023/08/02 12:51:53;;;;;;;;;;;22.10;75.60;;;21.45;68.73;95642.19;4916967;29;19939;-93
2023/08/02 12:54:27;;;;;;;;;;;22.10;75.20;;;21.44;68.41;95641.38;4925462;29;19929;-93
2023/08/02 12:57:24;;;;;;;;;;;22.10;74.90;;;21.46;67.96;95646.59;4912289;29;19930;-93
2023/08/02 13:03:44;;;;;;;;;;;22.10;74.00;;;21.49;67.55;95636.72;4939244;29;19938;-93
2023/08/02 13:06:21;;;;;;;;;;;22.10;73.70;;;21.49;67.10;95640.31;4899733;29;19927;-93
2023/08/02 13:09:04;;;;;;;;;;;22.20;73.50;;;21.51;66.82;95645.50;4888241;29;19931;-93
2023/08/02 13:14:33;;;;;;;;;;;22.10;73.00;;;21.50;66.64;95641.09;4909740;29;19927;-93
2023/08/02 13:17:35;;;;;;;;;;;22.10;72.80;;;21.52;65.95;95644.34;4883883;29;19938;-93
2023/08/02 13:20:32;;;;;;;;;;;22.10;72.50;;;21.52;66.45;95639.59;4868482;29;19927;-93
2023/08/02 13:23:13;;;;;;;;;;;22.20;72.40;;;21.53;65.86;95640.41;4890652;29;19950;-93
2023/08/02 13:25:48;;;;;;;;;;;22.20;72.20;;;21.53;66.11;95648.75;4907549;29;19931;-93
2023/08/02 13:28:41;;;;;;;;;;;22.20;72.30;;;21.54;66.25;95650.38;4888854;29;19943;-93
2023/08/02 13:31:19;;;;;;;;;;;22.20;72.30;;;21.53;66.15;95652.38;4887274;29;19927;-93
2023/08/02 13:33:54;;;;;;;;;;;22.20;72.20;;;21.52;65.99;95652.72;4904418;29;19926;-93
2023/08/02 13:36:36;;;;;;;;;;;22.20;72.20;;;21.52;65.88;95647.13;4914684;29;19934;-93
2023/08/02 13:42:01;;;;;;;;;;;22.20;71.60;;;21.52;64.96;95644.34;4901316;29;19927;-93
2023/08/02 13:44:36;;;;;;;;;;;22.20;71.30;;;21.54;65.48;95644.81;4915491;29;20386;-93
2023/08/02 13:47:13;;;;;;;;;;;22.20;71.40;;;21.51;65.35;95643.56;4910215;29;20386;-93
2023/08/02 13:49:55;;;;;;;;;;;22.10;71.40;;;21.52;65.21;95650.75;4913173;29;19935;-93
2023/08/02 13:52:46;;;;;;;;;;;22.20;71.20;;;21.51;64.92;95646.34;4908899;29;19933;-93
2023/08/02 13:55:39;;;;;;;;;;;22.20;71.10;;;21.52;64.65;95647.13;4888433;29;20402;-93
2023/08/02 13:58:14;;;;;;;;;;;22.20;70.70;;;21.50;64.48;95641.94;4885863;29;19927;-93
2023/08/02 14:00:52;;;;;;;;;;;22.10;70.80;;;21.50;64.98;95636.38;4905617;29;19927;-93
2023/08/02 14:03:46;;;;;;;;;;;22.20;70.90;;;21.48;64.71;95638.69;4919255;29;19931;-93
2023/08/02 14:06:25;;;;;;;;;;;22.20;70.70;;;21.49;64.27;95645.88;4889667;29;19927;-93
2023/08/02 14:09:14;;;;;;;;;;;22.20;70.50;;;21.49;63.98;95645.09;4925356;29;19935;-93
2023/08/02 14:11:51;;;;;;;;;;;22.20;70.00;;;21.49;64.46;95640.31;4913249;29;20697;-93
2023/08/02 14:14:30;;;;;;;;;;;22.20;70.70;;;21.50;64.39;95638.31;4900881;29;19927;-93
2023/08/02 14:17:09;;;;;;;;;;;22.10;70.10;;;21.49;64.07;95633.94;4892152;29;20314;-93
2023/08/02 14:19:43;;;;;;;;;;;22.10;69.90;;;21.50;63.40;95638.31;4887463;29;19927;-93
2023/08/02 14:22:20;;;;;;;;;;;22.20;69.40;;;21.48;63.52;95643.47;4894843;29;19927;-93
2023/08/02 14:25:00;;;;;;;;;;;22.10;69.40;;;21.48;63.37;95638.69;4894315;29;19936;-93
2023/08/02 14:27:35;;;;;;;;;;;22.10;69.20;;;21.47;62.71;95637.06;4891370;29;19927;-93
2023/08/02 14:30:14;;;;;;;;;;;22.10;68.50;;;21.48;62.50;95637.91;4868780;29;20399;-93
2023/08/02 14:32:49;;;;;;;;;;;22.10;68.60;;;21.48;62.64;95643.47;4866537;29;19931;-93
2023/08/02 14:35:24;;;;;;;;;;;22.10;68.80;;;21.47;62.64;95631.50;4880630;29;19934;-93
2023/08/02 14:38:06;;;;;;;;;;;22.10;68.70;;;21.46;62.99;95624.31;4888098;29;19927;-93
2023/08/02 14:40:40;;;;;;;;;;;22.10;69.20;;;21.45;63.29;95623.50;4929773;29;19927;-93
2023/08/02 14:43:12;;;;;;;;;;;22.10;69.30;;;21.45;63.55;95625.47;4878501;29;19932;-93
2023/08/02 14:45:53;;;;;;;;;;;22.10;69.30;;;21.45;63.39;95623.50;4896645;29;19927;-93
2023/08/02 14:48:39;;;;;;;;;;;22.10;69.20;;;21.45;63.22;95628.25;4905879;29;19934;-93
2023/08/02 14:51:17;;;;;;;;;;;22.10;69.20;;;21.45;62.63;95620.72;4881946;29;19927;-93
2023/08/02 14:53:56;;;;;;;;;;;22.10;68.50;;;21.45;62.21;95628.25;4904983;29;19935;-93
2023/08/02 14:57:00;;;;;;;;;;;22.10;68.20;;;21.46;62.74;95625.13;4878348;29;19932;-93
2023/08/02 14:59:35;;;;;;;;;;;22.10;68.30;;;21.45;62.29;95614.34;4897559;29;19942;-93
2023/08/02 15:02:08;;;;;;;;;;;22.10;68.20;;;21.45;62.16;95614.34;4878119;29;19927;-93
2023/08/02 15:04:39;;;;;;;;;;;22.10;68.20;;;21.46;62.27;95613.16;4887133;29;19954;-93
2023/08/02 15:07:15;;;;;;;;;;;22.10;68.00;;;21.44;62.19;95610.75;4881159;29;19927;-92
2023/08/02 15:09:52;;;;;;;;;;;22.10;67.80;;;21.45;62.01;95606.81;4889624;29;19927;-94
2023/08/02 15:12:33;;;;;;;;;;;22.10;67.70;;;21.43;61.33;95602.72;4914300;29;19934;-93
2023/08/02 15:15:17;;;;;;;;;;;22.10;67.10;;;21.42;61.67;95601.94;4891592;29;19938;-93
2023/08/02 15:17:47;;;;;;;;;;;22.10;67.30;;;21.42;61.42;95603.94;4905680;29;19935;-93
2023/08/02 15:20:30;;;;;;;;;;;22.10;66.90;;;21.41;61.30;95607.88;4907103;29;19934;-93
2023/08/02 15:23:04;;;;;;;;;;;22.10;66.80;;;21.40;61.33;95612.63;4889387;29;19927;-93
2023/08/02 15:25:35;;;;;;;;;;;22.10;67.20;;;21.37;61.33;95607.75;4904153;29;19927;-93
2023/08/02 15:28:09;;;;;;;;;;;22.00;66.90;;;21.36;60.92;95614.50;4860156;29;19931;-92
2023/08/02 15:30:43;;;;;;;;;;;22.00;66.60;;;21.35;61.07;95607.31;4902837;29;19927;-93
2023/08/02 15:33:13;;;;;;;;;;;22.00;66.70;;;21.35;61.02;95598.97;4877496;29;19927;-93
2023/08/02 15:35:44;;;;;;;;;;;22.00;66.60;;;21.35;61.19;95601.75;4904061;29;19927;-93
2023/08/02 15:38:15;;;;;;;;;;;22.00;66.80;;;21.35;61.27;95601.75;4885258;29;19927;-93
2023/08/02 15:40:46;;;;;;;;;;;22.00;66.90;;;21.35;60.92;95600.94;4904256;29;19927;-92
2023/08/02 15:43:18;;;;;;;;;;;22.00;66.50;;;21.34;61.56;95591.78;4888468;29;19935;-93
2023/08/02 15:45:49;;;;;;;;;;;22.00;66.90;;;21.33;61.40;95587.38;4896375;29;19932;-93